Oil City, Louisiana
Current Conditions -  °F | °C
As of 2:53 PM on Thursday 27 Nov 2014 (Local Time) from KDTN Reporting Station
Clear Clear  
Wind Chill: 56°   Ceiling: Unl
Heat Index: 56°   Visibility: 10mi
Dew Point: 25°   Wind: 5mph
Humidity: 30%   Direction: 10°N
Pressure: 30.45"   Gusts: NA
Location:  32.74°N, 93.97°W
Report Text: KDTN 272053Z 01004KT 10SM CLR 13/M04 A3045 RMK AO2 SLP309 T01331039 56023
Loading
Personal Weather Stations






























Interactive Weather Map New forecast layout! Learn more

10-Day Weather Forecast

Advertisements
Track Severe Weather on mobile